createdAt,value
2023-04-14T00:02:23.698Z,85.30
2023-04-14T00:07:25.978Z,85.30
2023-04-14T00:12:28.267Z,85.20
2023-04-14T00:17:33.023Z,85.20
2023-04-14T00:22:35.197Z,85.10
2023-04-14T00:27:37.441Z,85.00
2023-04-14T00:32:41.000Z,85.00
2023-04-14T00:37:43.085Z,85.20
2023-04-14T00:42:46.585Z,85.30
2023-04-14T00:47:51.887Z,85.60
2023-04-14T00:52:54.308Z,85.60
2023-04-14T00:58:00.222Z,86.50
2023-04-14T01:03:04.334Z,86.70
2023-04-14T01:08:06.702Z,87.60
2023-04-14T01:13:19.715Z,88.20
2023-04-14T01:18:33.229Z,88.80
2023-04-14T01:23:41.085Z,88.80
2023-04-14T01:29:01.692Z,88.70
2023-04-14T01:34:13.144Z,88.70
2023-04-14T01:39:24.040Z,88.50
2023-04-14T01:44:28.405Z,89.00
2023-04-14T01:49:35.294Z,89.00
2023-04-14T01:54:39.582Z,88.70
2023-04-14T01:59:42.577Z,88.70
2023-04-14T02:04:47.523Z,88.20
2023-04-14T02:09:53.236Z,88.20
2023-04-14T02:14:58.758Z,88.20
2023-04-14T02:20:02.438Z,88.20
2023-04-14T02:25:05.339Z,88.20
2023-04-14T02:30:12.735Z,88.20
2023-04-14T02:35:22.498Z,88.20
2023-04-14T02:40:29.721Z,88.30
2023-04-14T02:45:35.326Z,88.50
2023-04-14T02:50:43.102Z,88.20
2023-04-14T02:55:48.141Z,88.30
2023-04-14T03:00:51.730Z,88.60
2023-04-14T03:05:56.037Z,88.30
2023-04-14T03:10:59.775Z,88.70
2023-04-14T03:16:06.345Z,88.80
2023-04-14T03:21:10.032Z,88.70
2023-04-14T03:26:15.232Z,88.80
2023-04-14T03:31:20.307Z,88.90
2023-04-14T03:36:25.836Z,89.00
2023-04-14T03:41:29.157Z,88.90
2023-04-14T03:46:31.379Z,89.00
2023-04-14T03:51:38.791Z,89.30
2023-04-14T03:56:42.752Z,89.80
2023-04-14T04:01:46.895Z,90.00
2023-04-14T04:06:51.190Z,89.50
2023-04-14T04:11:55.424Z,89.50
2023-04-14T04:17:02.732Z,89.50
2023-04-14T04:22:07.955Z,89.60
2023-04-14T04:27:24.491Z,89.70
2023-04-14T04:32:30.333Z,90.30
2023-04-14T04:37:34.586Z,90.10
2023-04-14T04:42:41.372Z,90.20
2023-04-14T04:47:43.522Z,90.10
2023-04-14T04:52:47.123Z,90.20
2023-04-14T04:57:49.234Z,90.60
2023-04-14T05:02:51.505Z,90.30
2023-04-14T05:07:55.210Z,90.40
2023-04-14T05:12:57.279Z,90.50
2023-04-14T05:17:59.616Z,90.80
2023-04-14T05:23:03.610Z,91.10
2023-04-14T05:28:05.823Z,91.10
2023-04-14T05:33:08.095Z,90.90
2023-04-14T05:38:11.670Z,90.60
2023-04-14T05:43:14.010Z,90.00
2023-04-14T05:48:18.095Z,89.40
2023-04-14T05:53:21.951Z,88.00
2023-04-14T05:58:24.159Z,85.00
2023-04-14T06:03:26.437Z,82.40
2023-04-14T06:08:30.262Z,82.00
2023-04-14T06:13:34.827Z,83.90
2023-04-14T06:18:39.984Z,82.70
2023-04-14T06:23:43.578Z,80.70
2023-04-14T06:28:45.790Z,80.60
2023-04-14T06:33:48.019Z,76.20
2023-04-14T06:38:51.680Z,73.70
2023-04-14T06:43:53.802Z,74.80
2023-04-14T06:48:55.894Z,74.00
2023-04-14T06:53:59.857Z,71.60
2023-04-14T06:59:02.385Z,72.90
2023-04-14T07:04:07.756Z,73.10
2023-04-14T07:09:13.224Z,72.30
2023-04-14T07:14:15.419Z,72.50
2023-04-14T07:19:20.108Z,70.30
2023-04-14T07:24:23.741Z,66.90
2023-04-14T07:29:25.976Z,66.30
2023-04-14T07:34:28.404Z,67.30
2023-04-14T07:39:32.065Z,71.20
2023-04-14T07:44:37.053Z,72.20
2023-04-14T07:49:39.387Z,67.60
2023-04-14T07:54:43.035Z,58.60
2023-04-14T07:59:48.457Z,57.90
2023-04-14T08:04:50.735Z,62.20
2023-04-14T08:09:54.561Z,65.50
2023-04-14T08:14:56.868Z,58.10
2023-04-14T08:20:00.378Z,49.10
2023-04-14T08:25:04.276Z,50.80
2023-04-14T08:30:10.197Z,45.80
2023-04-14T08:35:36.881Z,44.70
2023-04-14T08:40:42.664Z,49.70
2023-04-14T08:45:45.873Z,47.40
2023-04-14T08:50:58.819Z,48.00
2023-04-14T08:56:04.978Z,46.60
2023-04-14T09:01:10.502Z,48.30
2023-04-14T09:06:15.037Z,51.10
2023-04-14T09:11:19.110Z,49.30
2023-04-14T09:16:21.553Z,50.90
2023-04-14T09:21:51.916Z,50.20
2023-04-14T09:26:48.047Z,49.40
2023-04-14T09:31:52.495Z,50.30
2023-04-14T09:37:02.503Z,49.90
2023-04-14T09:42:07.931Z,49.60
2023-04-14T09:47:10.086Z,49.50
2023-04-14T09:52:12.426Z,48.40
2023-04-14T09:57:25.108Z,49.40
2023-04-14T10:02:27.488Z,48.40
2023-04-14T10:07:29.774Z,47.70
2023-04-14T10:12:33.705Z,49.40
2023-04-14T10:17:36.090Z,50.10
2023-04-14T10:22:40.840Z,50.30
2023-04-14T10:27:45.170Z,50.80
2023-04-14T10:32:48.046Z,48.70
2023-04-14T10:37:51.019Z,50.50
2023-04-14T10:42:55.911Z,47.00
2023-04-14T10:47:58.280Z,47.40
2023-04-14T10:53:06.874Z,45.50
2023-04-14T10:58:18.857Z,46.70
2023-04-14T11:03:21.690Z,48.60
2023-04-14T11:08:28.240Z,48.30
2023-04-14T11:13:33.066Z,47.20
2023-04-14T11:18:38.669Z,43.10
2023-04-14T11:23:41.734Z,45.40
2023-04-14T11:28:46.660Z,43.60
2023-04-14T11:33:48.892Z,42.80
2023-04-14T11:38:51.155Z,44.80
2023-04-14T11:43:55.127Z,46.70
2023-04-14T11:48:57.559Z,45.30
2023-04-14T11:54:00.273Z,42.40
2023-04-14T11:59:05.854Z,45.30
2023-04-14T12:04:09.253Z,45.30
2023-04-14T12:09:15.082Z,46.70
2023-04-14T12:14:19.503Z,44.80
2023-04-14T12:19:21.671Z,46.10
2023-04-14T12:24:23.989Z,46.30
2023-04-14T12:29:28.410Z,46.80
2023-04-14T12:34:34.417Z,46.70
2023-04-14T12:39:50.955Z,46.70
2023-04-14T12:45:02.058Z,46.30
2023-04-14T12:50:22.712Z,46.40
2023-04-14T12:55:26.620Z,47.50
2023-04-14T13:00:30.696Z,43.80
2023-04-14T13:05:32.990Z,46.80
2023-04-14T13:10:35.147Z,46.50
2023-04-14T13:16:13.297Z,44.70
2023-04-14T13:21:00.938Z,45.50
2023-04-14T13:26:03.284Z,45.50
2023-04-14T13:31:07.088Z,44.30
2023-04-14T13:36:09.422Z,47.40
2023-04-14T13:41:22.932Z,47.50
2023-04-14T13:46:28.450Z,44.40
2023-04-14T13:51:31.672Z,46.10
2023-04-14T13:56:35.172Z,47.00
2023-04-14T14:01:38.802Z,46.90
2023-04-14T14:06:41.266Z,43.10
2023-04-14T14:11:43.409Z,46.10
2023-04-14T14:16:47.218Z,47.20
2023-04-14T14:21:49.454Z,44.60
2023-04-14T14:26:51.613Z,44.10
2023-04-14T14:31:55.419Z,45.00
2023-04-14T14:36:57.789Z,45.00
2023-04-14T14:42:00.701Z,45.40
2023-04-14T14:47:04.581Z,46.10
2023-04-14T14:52:07.152Z,42.60
2023-04-14T14:57:09.206Z,44.90
2023-04-14T15:02:12.940Z,45.90
2023-04-14T15:07:15.046Z,45.10
2023-04-14T15:12:17.456Z,44.10
2023-04-14T15:17:21.188Z,44.80
2023-04-14T15:22:23.398Z,44.50
2023-04-14T15:27:28.287Z,44.40
2023-04-14T15:32:31.899Z,44.70
2023-04-14T15:37:34.217Z,43.70
2023-04-14T15:42:40.754Z,43.70
2023-04-14T15:47:44.857Z,43.60
2023-04-14T15:52:47.034Z,43.50
2023-04-14T15:57:49.887Z,41.90
2023-04-14T16:02:54.774Z,44.20
2023-04-14T16:07:57.121Z,45.20
2023-04-14T16:12:59.874Z,46.50
2023-04-14T16:18:04.786Z,47.30
2023-04-14T16:23:07.023Z,47.60
2023-04-14T16:28:09.255Z,48.30
2023-04-14T16:33:13.188Z,48.60
2023-04-14T16:38:17.563Z,48.50
2023-04-14T16:43:19.664Z,49.10
2023-04-14T16:48:23.377Z,49.50
2023-04-14T16:53:25.545Z,50.10
2023-04-14T16:58:27.799Z,51.30
2023-04-14T17:03:33.935Z,51.40
2023-04-14T17:08:36.745Z,51.00
2023-04-14T17:13:38.934Z,51.50
2023-04-14T17:18:42.476Z,52.00
2023-04-14T17:23:44.614Z,52.30
2023-04-14T17:28:46.737Z,52.60
2023-04-14T17:33:56.383Z,53.00
2023-04-14T17:38:58.574Z,53.40
2023-04-14T17:44:01.056Z,53.70
2023-04-14T17:49:04.963Z,54.00
2023-04-14T17:54:07.252Z,54.50
2023-04-14T17:59:09.493Z,54.80
2023-04-14T18:04:13.138Z,55.70
2023-04-14T18:09:15.326Z,55.40
2023-04-14T18:14:17.505Z,55.70
2023-04-14T18:19:21.103Z,56.10
2023-04-14T18:29:30.200Z,56.50
2023-04-14T18:34:33.749Z,56.40
2023-04-14T18:39:36.064Z,56.80
2023-04-14T18:44:38.233Z,57.20
2023-04-14T18:49:42.897Z,57.40
2023-04-14T18:54:45.136Z,58.00
2023-04-14T18:59:47.301Z,58.30
2023-04-14T19:04:50.844Z,58.60
2023-04-14T19:09:52.951Z,58.90
2023-04-14T19:14:55.052Z,59.00
2023-04-14T19:20:06.842Z,59.20
2023-04-14T19:25:39.999Z,60.00
2023-04-14T19:30:43.752Z,60.00
2023-04-14T19:35:47.267Z,60.20
2023-04-14T19:40:50.251Z,61.60
2023-04-14T19:45:53.444Z,60.80
2023-04-14T19:50:57.068Z,61.30
2023-04-14T19:55:59.287Z,61.70
2023-04-14T20:01:01.538Z,61.70
2023-04-14T20:06:06.265Z,62.00
2023-04-14T20:11:19.571Z,62.30
2023-04-14T20:16:23.319Z,62.60
2023-04-14T20:21:26.882Z,62.70
2023-04-14T20:26:30.841Z,63.10
2023-04-14T20:31:33.285Z,63.30
2023-04-14T20:36:37.284Z,63.30
2023-04-14T20:41:39.994Z,63.80
2023-04-14T20:46:42.510Z,63.90
2023-04-14T20:51:46.303Z,64.20
2023-04-14T20:56:48.433Z,64.50
2023-04-14T21:01:50.894Z,64.50
2023-04-14T21:06:54.597Z,64.90
2023-04-14T21:12:14.948Z,65.20
2023-04-14T21:17:18.433Z,65.20
2023-04-14T21:22:22.078Z,65.40
2023-04-14T21:27:26.058Z,65.70
2023-04-14T21:32:28.205Z,65.90
2023-04-14T21:37:34.163Z,66.10
2023-04-14T21:42:36.401Z,66.90
2023-04-14T21:47:40.989Z,66.80
2023-04-14T21:52:44.590Z,67.00
2023-04-14T21:57:49.465Z,67.50
2023-04-14T22:02:52.733Z,67.40
2023-04-14T22:07:56.411Z,67.50
2023-04-14T22:12:58.698Z,68.20
2023-04-14T22:18:00.954Z,68.40
2023-04-14T22:23:04.499Z,68.70
2023-04-14T22:28:07.283Z,69.30
2023-04-14T22:33:09.366Z,69.50
2023-04-14T22:38:12.927Z,69.80
2023-04-14T22:43:15.115Z,70.10
2023-04-14T22:48:17.265Z,70.20
2023-04-14T22:53:20.815Z,70.40
2023-04-14T22:58:23.085Z,70.60
2023-04-14T23:03:25.251Z,70.70
2023-04-14T23:08:28.848Z,71.10
2023-04-14T23:13:30.998Z,72.00
2023-04-14T23:18:33.124Z,71.90
2023-04-14T23:23:36.615Z,71.70
2023-04-14T23:28:38.825Z,72.70
2023-04-14T23:33:41.011Z,72.40
2023-04-14T23:38:44.504Z,72.50
2023-04-14T23:43:46.577Z,72.90
2023-04-14T23:48:48.660Z,72.80
2023-04-14T23:53:53.385Z,72.80
2023-04-14T23:58:55.644Z,73.00
